Waverly, Missouri
Current Conditions -  °F | °C
As of 9:58 PM on Wednesday 22 Oct 2014 (Local Time) from KSZL Reporting Station
Clear Clear  
Wind Chill: 56°   Ceiling: Unl
Heat Index: 56°   Visibility: 10mi
Dew Point: 47°   Wind: 8mph
Humidity: 72%   Direction: 140°SE
Pressure: 30.14"   Gusts: NA
Location:  39.21°N, 93.52°W
Report Text: KSZL 230258Z 14007KT 10SM CLR 13/08 A3014 RMK AO2A SLP209 T01330083 50002 $
Loading
Personal Weather Stations






























Interactive Weather Map
Tropical Storm Tracking
New forecast layout! Learn more

10-Day Weather Forecast

Advertisements
Track Severe Weather on mobile